createdAt,value
2019-04-04T00:01:33.326Z,28.73
2019-04-04T00:04:03.905Z,30.77
2019-04-04T00:06:34.394Z,38.40
2019-04-04T00:09:12.960Z,28.10
2019-04-04T00:11:43.437Z,26.10
2019-04-04T00:14:20.491Z,35.03
2019-04-04T00:16:51.968Z,28.67
2019-04-04T00:19:22.578Z,30.63
2019-04-04T00:21:53.274Z,32.23
2019-04-04T00:24:23.644Z,29.47
2019-04-04T00:27:01.109Z,29.20
2019-04-04T00:29:31.863Z,25.07
2019-04-04T00:32:02.314Z,26.02
2019-04-04T00:34:32.886Z,25.00
2019-04-04T00:37:04.737Z,26.63
2019-04-04T00:39:35.724Z,30.27
2019-04-04T00:42:07.914Z,27.67
2019-04-04T00:44:38.389Z,22.47
2019-04-04T00:47:09.595Z,27.90
2019-04-04T00:49:40.078Z,26.87
2019-04-04T00:52:10.954Z,31.47
2019-04-04T00:54:44.631Z,27.77
2019-04-04T00:57:13.715Z,26.57
2019-04-04T00:59:44.163Z,28.27
2019-04-04T01:02:15.006Z,28.87
2019-04-04T01:04:45.564Z,35.68
2019-04-04T01:07:16.086Z,31.07
2019-04-04T01:09:47.900Z,28.17
2019-04-04T01:12:21.477Z,34.00
2019-04-04T01:14:51.054Z,26.67
2019-04-04T01:17:22.601Z,29.73
2019-04-04T01:19:53.035Z,28.47
2019-04-04T01:22:25.131Z,29.43
2019-04-04T01:24:55.660Z,29.07
2019-04-04T01:27:26.205Z,32.73
2019-04-04T01:29:56.650Z,31.80
2019-04-04T01:32:27.309Z,31.93
2019-04-04T01:34:58.069Z,28.40
2019-04-04T01:37:28.569Z,33.83
2019-04-04T01:39:59.904Z,30.68
2019-04-04T01:42:31.210Z,28.27
2019-04-04T01:45:01.650Z,30.57
2019-04-04T01:47:32.108Z,27.73
2019-04-04T01:50:03.817Z,29.80
2019-04-04T01:52:34.594Z,29.10
2019-04-04T01:55:05.361Z,26.27
2019-04-04T01:57:38.534Z,27.20
2019-04-04T02:00:08.901Z,30.57
2019-04-04T02:02:57.861Z,34.30
2019-04-04T02:05:28.291Z,29.33
2019-04-04T02:08:00.940Z,30.37
2019-04-04T02:10:34.502Z,33.60
2019-04-04T02:13:04.209Z,31.37
2019-04-04T02:15:34.624Z,30.57
2019-04-04T02:18:05.418Z,28.52
2019-04-04T02:20:35.937Z,28.57
2019-04-04T02:23:06.423Z,27.03
2019-04-04T02:25:36.946Z,33.53
2019-04-04T02:28:08.874Z,29.10
2019-04-04T02:30:40.520Z,32.90
2019-04-04T02:33:10.882Z,32.63
2019-04-04T02:35:43.759Z,32.00
2019-04-04T02:38:13.535Z,35.70
2019-04-04T02:40:44.006Z,27.53
2019-04-04T02:43:14.465Z,27.37
2019-04-04T02:45:45.249Z,25.37
2019-04-04T02:48:15.815Z,30.13
2019-04-04T02:50:46.271Z,30.87
2019-04-04T02:53:19.654Z,28.33
2019-04-04T02:55:48.915Z,30.80
2019-04-04T02:58:19.444Z,34.27
2019-04-04T03:00:49.857Z,29.37
2019-04-04T03:03:20.349Z,30.93
2019-04-04T03:05:52.072Z,29.37
2019-04-04T03:08:22.855Z,26.93
2019-04-04T03:10:53.309Z,30.07
2019-04-04T03:13:23.780Z,30.17
2019-04-04T03:15:54.375Z,29.53
2019-04-04T03:18:24.801Z,28.50
2019-04-04T03:20:55.206Z,29.00
2019-04-04T03:23:25.839Z,29.33
2019-04-04T03:25:56.677Z,31.47
2019-04-04T03:28:31.402Z,31.30
2019-04-04T03:31:02.942Z,31.23
2019-04-04T03:33:32.687Z,33.43
2019-04-04T03:36:03.520Z,31.93
2019-04-04T03:38:33.985Z,28.63
2019-04-04T03:41:04.484Z,27.77
2019-04-04T03:43:34.992Z,31.67
2019-04-04T03:46:05.791Z,31.17
2019-04-04T03:48:36.632Z,29.67
2019-04-04T03:51:07.511Z,28.53
2019-04-04T03:53:40.199Z,28.23
2019-04-04T03:56:10.661Z,30.03
2019-04-04T03:58:41.611Z,29.07
2019-04-04T04:01:13.391Z,32.53
2019-04-04T04:03:43.971Z,31.10
2019-04-04T04:06:14.715Z,32.97
2019-04-04T04:08:45.198Z,28.90
2019-04-04T04:11:16.191Z,28.50
2019-04-04T04:13:49.255Z,31.70
2019-04-04T04:16:19.787Z,27.53
2019-04-04T04:18:54.178Z,33.37
2019-04-04T04:21:22.574Z,31.53
2019-04-04T04:23:56.923Z,25.47
2019-04-04T04:26:27.241Z,31.17
2019-04-04T04:28:58.742Z,32.07
2019-04-04T04:31:29.266Z,29.63
2019-04-04T04:34:01.678Z,30.67
2019-04-04T04:36:32.409Z,29.97
2019-04-04T04:39:03.048Z,28.43
2019-04-04T04:41:34.315Z,30.70
2019-04-04T04:44:05.635Z,31.00
2019-04-04T04:46:37.087Z,29.80
2019-04-04T04:49:07.706Z,34.13
2019-04-04T04:51:43.230Z,29.93
2019-04-04T04:54:12.422Z,29.60
2019-04-04T04:56:42.831Z,31.77
2019-04-04T04:59:13.991Z,32.17
2019-04-04T05:01:44.609Z,31.50
2019-04-04T05:04:15.268Z,34.37
2019-04-04T05:06:45.788Z,29.87
2019-04-04T05:09:16.282Z,31.53
2019-04-04T05:11:48.104Z,30.23
2019-04-04T05:14:19.281Z,28.50
2019-04-04T05:16:49.945Z,34.00
2019-04-04T05:19:20.376Z,31.50
2019-04-04T05:21:51.030Z,24.43
2019-04-04T05:24:22.367Z,32.50
2019-04-04T05:26:54.002Z,30.33
2019-04-04T05:29:25.369Z,30.03
2019-04-04T05:31:56.951Z,30.23
2019-04-04T05:34:28.312Z,31.53
2019-04-04T05:36:59.786Z,30.23
2019-04-04T05:39:30.583Z,32.43
2019-04-04T05:42:04.465Z,33.73
2019-04-04T05:44:35.289Z,29.77
2019-04-04T05:47:10.360Z,33.77
2019-04-04T05:49:40.991Z,28.43
2019-04-04T05:52:11.787Z,27.33
2019-04-04T05:54:42.416Z,28.80
2019-04-04T05:57:12.973Z,31.10
2019-04-04T05:59:43.613Z,29.27
2019-04-04T06:02:14.446Z,34.83
2019-04-04T06:04:44.990Z,29.87
2019-04-04T06:07:16.524Z,31.73
2019-04-04T06:09:47.110Z,27.87
2019-04-04T06:12:17.591Z,30.50
2019-04-04T06:14:47.976Z,28.62
2019-04-04T06:17:18.441Z,28.67
2019-04-04T06:19:48.840Z,25.90
2019-04-04T06:22:21.129Z,26.30
2019-04-04T06:24:52.241Z,30.10
2019-04-04T06:27:22.973Z,31.07
2019-04-04T06:29:53.481Z,26.93
2019-04-04T06:32:23.940Z,30.30
2019-04-04T06:34:56.657Z,31.30
2019-04-04T06:37:27.155Z,25.80
2019-04-04T06:39:58.856Z,29.27
2019-04-04T06:42:30.237Z,29.97
2019-04-04T06:45:00.809Z,30.87
2019-04-04T06:47:32.481Z,25.20
2019-04-04T06:50:03.117Z,30.45
2019-04-04T06:52:34.402Z,27.50
2019-04-04T06:55:05.403Z,27.00
2019-04-04T06:57:36.638Z,25.15
2019-04-04T07:00:10.449Z,27.73
2019-04-04T07:02:40.880Z,30.85
2019-04-04T07:05:11.524Z,28.65
2019-04-04T07:07:43.944Z,29.98
2019-04-04T07:10:15.094Z,26.17
2019-04-04T07:12:45.469Z,28.47
2019-04-04T07:15:16.230Z,25.00
2019-04-04T07:17:46.856Z,24.65
2019-04-04T07:20:17.567Z,30.35
2019-04-04T07:22:48.585Z,27.82
2019-04-04T07:25:19.059Z,29.52
2019-04-04T07:27:49.539Z,25.17
2019-04-04T07:30:20.143Z,29.57
2019-04-04T07:32:50.566Z,24.60
2019-04-04T07:35:21.216Z,23.80
2019-04-04T07:37:55.404Z,25.20
2019-04-04T07:40:24.082Z,28.50
2019-04-04T07:42:55.327Z,31.10
2019-04-04T07:45:26.893Z,24.70
2019-04-04T07:47:57.462Z,26.52
2019-04-04T07:50:27.948Z,23.55
2019-04-04T07:52:58.352Z,23.62
2019-04-04T07:55:28.804Z,27.75
2019-04-04T07:57:59.330Z,29.35
2019-04-04T08:00:30.402Z,27.55
2019-04-04T08:03:00.787Z,37.28
2019-04-04T08:05:31.431Z,25.65
2019-04-04T08:08:01.856Z,30.25
2019-04-04T08:10:32.298Z,24.43
2019-04-04T08:13:02.932Z,39.42
2019-04-04T08:15:35.838Z,30.88
2019-04-04T08:18:05.551Z,22.95
2019-04-04T08:20:35.944Z,24.12
2019-04-04T08:23:06.358Z,21.23
2019-04-04T08:25:36.775Z,26.73
2019-04-04T08:28:07.226Z,25.75
2019-04-04T08:30:37.694Z,22.62
2019-04-04T08:33:10.787Z,23.12
2019-04-04T08:35:41.317Z,23.90
2019-04-04T08:38:11.733Z,24.23
2019-04-04T08:40:42.397Z,17.90
2019-04-04T08:43:12.803Z,17.67
2019-04-04T08:45:43.258Z,36.65
2019-04-04T08:48:17.064Z,19.37
2019-04-04T08:50:47.457Z,20.05
2019-04-04T08:53:18.021Z,19.92
2019-04-04T08:55:48.454Z,18.45
2019-04-04T08:58:18.866Z,23.92
2019-04-04T09:00:50.254Z,19.00
2019-04-04T09:03:20.660Z,21.37
2019-04-04T09:05:51.093Z,19.77
2019-04-04T09:08:21.482Z,22.98
2019-04-04T09:10:52.365Z,21.35
2019-04-04T09:13:24.925Z,18.42
2019-04-04T09:15:55.322Z,23.18
2019-04-04T09:18:25.832Z,20.30
2019-04-04T09:20:56.485Z,20.48
2019-04-04T09:23:26.918Z,22.40
2019-04-04T09:26:05.516Z,18.57
2019-04-04T09:28:29.800Z,22.02
2019-04-04T09:31:00.272Z,16.05
2019-04-04T09:33:31.845Z,20.30
2019-04-04T09:36:02.230Z,22.15
2019-04-04T09:38:32.941Z,20.20
2019-04-04T09:41:03.569Z,17.35
2019-04-04T09:43:34.177Z,19.82
2019-04-04T09:46:04.663Z,15.15
2019-04-04T09:48:35.140Z,17.90
2019-04-04T09:51:05.603Z,20.52
2019-04-04T09:53:52.083Z,18.67
2019-04-04T09:56:16.909Z,19.00
2019-04-04T09:58:47.562Z,17.35
2019-04-04T10:01:18.155Z,18.65
2019-04-04T10:03:49.098Z,17.67
2019-04-04T10:06:19.794Z,16.23
2019-04-04T10:08:50.393Z,19.35
2019-04-04T10:11:21.003Z,17.80
2019-04-04T10:13:51.420Z,21.07
2019-04-04T10:16:22.703Z,16.17
2019-04-04T10:18:54.145Z,18.02
2019-04-04T10:21:25.871Z,18.40
2019-04-04T10:23:56.498Z,17.42
2019-04-04T10:26:27.003Z,18.90
2019-04-04T10:28:57.710Z,16.82
2019-04-04T10:31:29.061Z,16.87
2019-04-04T10:33:59.656Z,16.70
2019-04-04T10:36:30.230Z,18.23
2019-04-04T10:39:02.694Z,20.40
2019-04-04T10:41:34.585Z,18.23
2019-04-04T10:44:05.170Z,15.60
2019-04-04T10:46:36.743Z,17.62
2019-04-04T10:49:08.464Z,15.23
2019-04-04T10:51:40.026Z,16.77
2019-04-04T10:54:10.577Z,14.93
2019-04-04T10:56:49.282Z,18.45
2019-04-04T10:59:19.945Z,14.87
2019-04-04T11:01:51.326Z,15.68
2019-04-04T11:04:21.723Z,17.82
2019-04-04T11:06:52.252Z,14.23
2019-04-04T11:09:23.434Z,15.50
2019-04-04T11:11:53.894Z,18.65
2019-04-04T11:14:25.368Z,16.40
2019-04-04T11:16:56.228Z,15.85
2019-04-04T11:19:31.474Z,21.42
2019-04-04T11:21:58.993Z,19.15
2019-04-04T11:24:30.458Z,14.90
2019-04-04T11:27:01.624Z,12.28
2019-04-04T11:29:33.059Z,17.67
2019-04-04T11:32:04.492Z,18.70
2019-04-04T11:34:36.111Z,12.28
2019-04-04T11:37:06.581Z,14.15
2019-04-04T11:39:37.048Z,12.88
2019-04-04T11:42:07.583Z,15.10
2019-04-04T11:44:38.024Z,19.40
2019-04-04T11:47:08.654Z,17.75
2019-04-04T11:49:39.243Z,14.47
2019-04-04T11:52:09.626Z,16.30
2019-04-04T11:54:57.255Z,19.00
2019-04-04T11:57:27.649Z,16.45
2019-04-04T11:59:58.051Z,16.87
2019-04-04T12:02:32.632Z,19.50
2019-04-04T12:05:02.810Z,13.08
2019-04-04T12:07:33.209Z,13.28
2019-04-04T12:10:07.762Z,12.98
2019-04-04T12:12:36.229Z,11.00
2019-04-04T12:15:08.216Z,14.47
2019-04-04T12:17:39.050Z,16.95
2019-04-04T12:20:10.416Z,15.35
2019-04-04T12:22:40.901Z,10.75
2019-04-04T12:25:11.546Z,15.45
2019-04-04T12:27:41.928Z,14.38
2019-04-04T12:30:12.626Z,11.75
2019-04-04T12:32:43.156Z,15.18
2019-04-04T12:35:13.618Z,11.75
2019-04-04T12:37:44.128Z,16.25
2019-04-04T12:40:20.788Z,10.78
2019-04-04T12:42:47.723Z,11.08
2019-04-04T12:45:18.621Z,13.83
2019-04-04T12:47:49.436Z,12.85
2019-04-04T12:50:20.433Z,14.78
2019-04-04T12:52:51.385Z,15.20
2019-04-04T12:55:21.863Z,14.80
2019-04-04T12:57:52.290Z,13.50
2019-04-04T13:00:22.690Z,13.15
2019-04-04T13:02:53.300Z,12.03
2019-04-04T13:05:23.692Z,13.35
2019-04-04T13:07:54.329Z,9.00
2019-04-04T13:10:32.993Z,11.83
2019-04-04T13:12:59.196Z,9.40
2019-04-04T13:15:30.294Z,11.55
2019-04-04T13:18:00.781Z,13.08
2019-04-04T13:20:32.197Z,10.90
2019-04-04T13:23:02.654Z,12.65
2019-04-04T13:25:33.674Z,11.83
2019-04-04T13:28:04.586Z,13.45
2019-04-04T13:30:35.230Z,18.10
2019-04-04T13:33:06.323Z,11.63
2019-04-04T13:35:37.940Z,12.93
2019-04-04T13:38:09.070Z,14.10
2019-04-04T13:40:45.412Z,10.75
2019-04-04T13:43:11.667Z,11.22
2019-04-04T13:45:42.221Z,15.10
2019-04-04T13:48:13.250Z,14.13
2019-04-04T13:50:44.105Z,15.32
2019-04-04T13:53:14.521Z,14.50
2019-04-04T13:55:44.908Z,12.82
2019-04-04T13:58:17.564Z,14.87
2019-04-04T14:00:48.375Z,12.03
2019-04-04T14:03:18.993Z,11.63
2019-04-04T14:05:49.546Z,12.30
2019-04-04T14:08:20.058Z,13.98
2019-04-04T14:10:58.070Z,11.38
2019-04-04T14:13:22.630Z,13.48
2019-04-04T14:15:53.097Z,9.80
2019-04-04T14:18:24.043Z,10.48
2019-04-04T14:21:03.509Z,11.90
2019-04-04T14:23:27.832Z,9.78
2019-04-04T14:25:59.988Z,67.92
2019-04-04T14:28:30.525Z,22.65
2019-04-04T14:31:00.998Z,20.05
2019-04-04T14:33:31.482Z,10.43
2019-04-04T14:36:01.845Z,9.93
2019-04-04T14:38:32.539Z,9.60
2019-04-04T14:41:10.987Z,14.73
2019-04-04T14:43:35.184Z,10.40
2019-04-04T14:46:05.982Z,13.48
2019-04-04T14:48:37.374Z,9.55
2019-04-04T14:51:07.825Z,12.28
2019-04-04T14:53:38.531Z,13.05
2019-04-04T14:56:08.929Z,9.18
2019-04-04T14:58:39.401Z,9.88
2019-04-04T15:01:10.074Z,10.05
2019-04-04T15:03:42.249Z,10.38
2019-04-04T15:06:12.817Z,11.68
2019-04-04T15:08:43.193Z,11.97
2019-04-04T15:11:23.544Z,8.38
2019-04-04T15:13:46.049Z,9.00
2019-04-04T15:16:18.157Z,10.78
2019-04-04T15:18:48.559Z,7.87
2019-04-04T15:21:19.270Z,10.78
2019-04-04T15:23:49.703Z,10.70
2019-04-04T15:26:20.430Z,8.48
2019-04-04T15:28:50.884Z,12.35
2019-04-04T15:31:21.275Z,10.58
2019-04-04T15:33:51.726Z,8.85
2019-04-04T15:36:22.206Z,10.38
2019-04-04T15:38:52.639Z,7.92
2019-04-04T15:41:35.892Z,10.53
2019-04-04T15:43:55.579Z,9.05
2019-04-04T15:46:27.042Z,7.92
2019-04-04T15:48:57.957Z,9.03
2019-04-04T15:51:28.551Z,9.83
2019-04-04T15:53:59.067Z,10.23
2019-04-04T15:56:29.760Z,10.80
2019-04-04T15:59:00.158Z,11.00
2019-04-04T16:01:30.527Z,8.55
2019-04-04T16:04:01.002Z,9.13
2019-04-04T16:06:31.394Z,11.35
2019-04-04T16:09:01.929Z,12.47
2019-04-04T16:11:33.782Z,11.57
2019-04-04T16:14:04.519Z,6.50
2019-04-04T16:16:34.965Z,10.43
2019-04-04T16:19:05.337Z,9.25
2019-04-04T16:21:37.891Z,8.90
2019-04-04T16:24:08.549Z,12.90
2019-04-04T16:26:39.288Z,11.85
2019-04-04T16:29:10.060Z,10.55
2019-04-04T16:31:40.497Z,8.65
2019-04-04T16:34:10.999Z,10.38
2019-04-04T16:36:41.393Z,9.25
2019-04-04T16:39:11.762Z,9.75
2019-04-04T16:41:42.158Z,11.12
2019-04-04T16:44:12.589Z,14.23
2019-04-04T16:46:43.731Z,13.30
2019-04-04T16:49:14.442Z,10.68
2019-04-04T16:51:44.834Z,11.38
2019-04-04T16:54:15.270Z,9.53
2019-04-04T16:56:45.639Z,11.88
2019-04-04T16:59:16.363Z,13.53
2019-04-04T17:01:46.827Z,12.13
2019-04-04T17:04:19.185Z,14.15
2019-04-04T17:06:54.825Z,11.12
2019-04-04T17:09:26.536Z,13.80
2019-04-04T17:11:56.979Z,12.65
2019-04-04T17:14:27.468Z,11.53
2019-04-04T17:16:58.124Z,14.33
2019-04-04T17:19:28.952Z,14.05
2019-04-04T17:21:59.670Z,15.68
2019-04-04T17:24:30.085Z,14.07
2019-04-04T17:27:01.679Z,13.65
2019-04-04T17:29:32.160Z,15.53
2019-04-04T17:32:02.998Z,16.73
2019-04-04T17:34:34.031Z,19.73
2019-04-04T17:37:05.012Z,21.82
2019-04-04T17:39:35.522Z,16.25
2019-04-04T17:42:06.119Z,18.35
2019-04-04T17:44:36.609Z,15.72
2019-04-04T17:47:07.033Z,11.38
2019-04-04T17:49:37.551Z,12.07
2019-04-04T17:52:08.129Z,12.68
2019-04-04T17:54:38.691Z,14.70
2019-04-04T17:57:09.630Z,10.95
2019-04-04T17:59:40.262Z,11.83
2019-04-04T18:02:10.925Z,12.98
2019-04-04T18:04:48.234Z,16.02
2019-04-04T18:07:14.787Z,16.97
2019-04-04T18:09:45.809Z,14.70
2019-04-04T18:12:17.017Z,17.80
2019-04-04T18:14:47.720Z,14.55
2019-04-04T18:17:18.151Z,17.07
2019-04-04T18:19:48.614Z,12.47
2019-04-04T18:22:20.897Z,17.98
2019-04-04T18:24:51.404Z,23.90
2019-04-04T18:27:22.004Z,17.05
2019-04-04T18:29:52.478Z,15.00
2019-04-04T18:32:23.152Z,12.75
2019-04-04T18:34:53.547Z,16.10
2019-04-04T18:37:24.267Z,13.53
2019-04-04T18:39:54.885Z,12.33
2019-04-04T18:42:25.594Z,11.43
2019-04-04T18:44:56.280Z,12.80
2019-04-04T18:47:26.689Z,13.22
2019-04-04T18:49:57.366Z,11.78
2019-04-04T18:52:28.166Z,17.30
2019-04-04T18:55:00.438Z,12.73
2019-04-04T18:57:31.223Z,11.20
2019-04-04T19:00:01.750Z,13.43
2019-04-04T19:02:33.187Z,15.68
2019-04-04T19:05:03.839Z,16.32
2019-04-04T19:07:39.544Z,12.90
2019-04-04T19:10:07.407Z,15.08
2019-04-04T19:12:37.905Z,11.55
2019-04-04T19:15:09.556Z,14.87
2019-04-04T19:17:40.139Z,11.88
2019-04-04T19:20:11.203Z,17.40
2019-04-04T19:22:41.642Z,17.25
2019-04-04T19:25:13.753Z,11.28
2019-04-04T19:27:44.507Z,12.55
2019-04-04T19:30:17.813Z,10.78
2019-04-04T19:32:48.330Z,14.85
2019-04-04T19:35:19.066Z,16.75
2019-04-04T19:37:59.465Z,14.20
2019-04-04T19:40:21.878Z,14.40
2019-04-04T19:42:52.410Z,13.45
2019-04-04T19:45:23.151Z,14.07
2019-04-04T19:48:02.756Z,17.02
2019-04-04T19:50:33.376Z,15.90
2019-04-04T19:53:04.909Z,12.45
2019-04-04T19:55:35.453Z,15.13
2019-04-04T19:58:05.959Z,14.60
2019-04-04T20:00:36.659Z,11.75
2019-04-04T20:03:15.023Z,17.82
2019-04-04T20:05:45.641Z,13.48
2019-04-04T20:08:16.391Z,12.58
2019-04-04T20:10:47.036Z,15.55
2019-04-04T20:13:29.981Z,11.08
2019-04-04T20:15:50.406Z,13.55
2019-04-04T20:18:21.017Z,17.35
2019-04-04T20:20:51.705Z,13.43
2019-04-04T20:23:22.337Z,15.70
2019-04-04T20:25:53.098Z,13.85
2019-04-04T20:28:23.961Z,10.72
2019-04-04T20:30:58.602Z,11.10
2019-04-04T20:33:29.350Z,15.38
2019-04-04T20:36:01.044Z,14.13
2019-04-04T20:38:31.724Z,13.18
2019-04-04T20:41:02.297Z,12.75
2019-04-04T20:43:42.741Z,11.33
2019-04-04T20:46:05.036Z,13.72
2019-04-04T20:48:35.566Z,16.02
2019-04-04T20:51:13.033Z,16.17
2019-04-04T20:53:43.486Z,18.05
2019-04-04T20:56:13.942Z,16.45
2019-04-04T20:58:44.482Z,14.78
2019-04-04T21:01:14.913Z,17.48
2019-04-04T21:03:45.424Z,16.40
2019-04-04T21:06:15.983Z,14.78
2019-04-04T21:08:46.419Z,15.60
2019-04-04T21:11:16.817Z,15.30
2019-04-04T21:13:56.126Z,15.60
2019-04-04T21:16:20.321Z,17.85
2019-04-04T21:18:50.787Z,14.13
2019-04-04T21:21:21.621Z,16.35
2019-04-04T21:23:52.083Z,14.75
2019-04-04T21:26:22.653Z,19.23
2019-04-04T21:28:53.173Z,14.68
2019-04-04T21:31:23.712Z,14.87
2019-04-04T21:33:54.202Z,14.18
2019-04-04T21:36:24.641Z,15.90
2019-04-04T21:38:55.095Z,16.37
2019-04-04T21:41:25.726Z,16.73
2019-04-04T21:44:07.857Z,15.55
2019-04-04T21:46:28.374Z,17.00
2019-04-04T21:48:58.950Z,13.58
2019-04-04T21:55:21.706Z,17.32
2019-04-04T21:57:52.276Z,17.00
2019-04-04T22:00:23.464Z,16.50
2019-04-04T22:02:55.574Z,19.00
2019-04-04T22:05:26.127Z,20.00
2019-04-04T22:07:56.666Z,22.27
2019-04-04T22:10:27.183Z,14.70
2019-04-04T22:12:58.158Z,15.75
2019-04-04T22:15:34.705Z,16.00
2019-04-04T22:18:05.513Z,18.23
2019-04-04T22:20:35.942Z,16.90
2019-04-04T22:23:06.383Z,17.60
2019-04-04T22:25:36.816Z,19.73
2019-04-04T22:28:07.283Z,16.70
2019-04-04T22:30:37.813Z,14.98
2019-04-04T22:33:08.282Z,15.43
2019-04-04T22:35:38.842Z,15.60
2019-04-04T22:38:09.559Z,20.80
2019-04-04T22:40:40.967Z,16.40
2019-04-04T22:43:12.554Z,15.90
2019-04-04T22:45:43.092Z,19.37
2019-04-04T22:48:14.182Z,14.23
2019-04-04T22:50:44.754Z,14.85
2019-04-04T22:53:15.226Z,15.85
2019-04-04T22:55:45.714Z,18.73
2019-04-04T22:58:27.636Z,19.05
2019-04-04T23:00:48.421Z,18.65
2019-04-04T23:03:18.997Z,24.00
2019-04-04T23:05:50.516Z,17.27
2019-04-04T23:08:20.960Z,18.17
2019-04-04T23:10:51.369Z,17.55
2019-04-04T23:13:22.037Z,15.68
2019-04-04T23:15:53.470Z,22.42
2019-04-04T23:18:23.919Z,18.98
2019-04-04T23:20:54.591Z,17.82
2019-04-04T23:23:24.988Z,18.75
2019-04-04T23:25:55.446Z,16.05
2019-04-04T23:28:25.849Z,20.35
2019-04-04T23:30:59.713Z,17.48
2019-04-04T23:33:30.175Z,23.45
2019-04-04T23:36:00.741Z,23.65
2019-04-04T23:38:31.165Z,18.92
2019-04-04T23:41:01.619Z,17.90
2019-04-04T23:43:32.089Z,20.10
2019-04-04T23:46:02.555Z,17.42
2019-04-04T23:48:32.997Z,17.65
2019-04-04T23:51:03.562Z,19.30
2019-04-04T23:53:34.117Z,20.80
2019-04-04T23:56:05.013Z,18.12
2019-04-04T23:58:35.551Z,18.12
